Time;durP1;ratioP1;P1;durP2;ratioP2;P2;SDS_P1;SDS_P2;PMS_P1;PMS_P2;Temp;Humidity;BMP_temperature;BMP_pressure;BME280_temperature;BME280_humidity;BME280_pressure;Samples;Min_cycle;Max_cycle;Signal;HPM_P1;HPM_P2
2022/05/18 00:01:07;;;;;;;13.80;8.77;;;16.10;99.90;;;;;;5035064;28;20021;-59
2022/05/18 00:03:36;;;;;;;13.25;9.07;;;16.20;99.90;;;;;;5030936;28;20052;-58
2022/05/18 00:06:03;;;;;;;17.35;9.63;;;16.20;99.90;;;;;;5035051;28;20466;-59
2022/05/18 00:08:36;;;;;;;12.60;10.00;;;16.20;99.90;;;;;;5036743;28;20025;-60
2022/05/18 00:11:20;;;;;;;14.90;10.50;;;16.10;99.90;;;;;;5033543;28;20060;-59
2022/05/18 00:13:47;;;;;;;;;;;16.10;99.90;;;;;;5035558;28;20099;-59
2022/05/18 00:16:14;;;;;;;14.73;9.85;;;16.00;99.90;;;;;;5034953;28;19995;-60
2022/05/18 00:18:40;;;;;;;17.60;10.02;;;15.90;99.90;;;;;;5031624;28;20022;-60
2022/05/18 00:21:06;;;;;;;16.10;10.48;;;15.90;99.90;;;;;;5033371;28;20453;-59
2022/05/18 00:23:33;;;;;;;15.30;10.82;;;15.80;99.90;;;;;;5036573;28;20112;-59
2022/05/18 00:25:59;;;;;;;15.32;10.75;;;15.80;99.90;;;;;;5034997;28;20045;-59
2022/05/18 00:28:25;;;;;;;17.80;10.95;;;15.80;99.90;;;;;;5034748;28;20133;-60
2022/05/18 00:30:51;;;;;;;19.33;11.20;;;15.80;99.90;;;;;;5034195;28;20112;-59
2022/05/18 00:33:17;;;;;;;12.63;10.82;;;15.70;99.90;;;;;;5031252;28;20034;-58
2022/05/18 00:35:43;;;;;;;18.95;11.38;;;15.70;99.90;;;;;;5037063;28;20041;-59
2022/05/18 00:38:10;;;;;;;15.07;11.60;;;15.90;99.90;;;;;;5034670;28;20049;-60
2022/05/18 00:40:39;;;;;;;16.08;11.23;;;15.80;99.90;;;;;;5034681;28;20025;-60
2022/05/18 00:43:04;;;;;;;15.15;11.27;;;15.80;99.90;;;;;;5033349;28;20071;-59
2022/05/18 00:45:31;;;;;;;17.55;11.27;;;15.80;99.90;;;;;;5031203;28;20055;-59
2022/05/18 00:47:56;;;;;;;16.83;11.82;;;15.80;99.90;;;;;;5035098;28;20034;-59
2022/05/18 00:50:28;;;;;;;14.65;11.35;;;15.90;99.90;;;;;;5033831;28;20021;-60
2022/05/18 00:53:09;;;;;;;15.40;11.45;;;15.80;99.90;;;;;;5034440;28;20045;-59
2022/05/18 00:55:40;;;;;;;16.90;12.40;;;16.00;99.90;;;;;;5034449;28;20497;-59
2022/05/18 00:58:15;;;;;;;15.68;11.63;;;16.00;99.90;;;;;;5032766;28;20040;-59
2022/05/18 01:00:42;;;;;;;15.45;11.93;;;15.90;99.90;;;;;;5032178;28;20029;-60
2022/05/18 01:03:29;;;;;;;17.17;12.52;;;15.90;99.90;;;;;;5032546;28;20517;-59
2022/05/18 01:06:25;;;;;;;15.82;12.15;;;15.80;99.90;;;;;;5044431;28;20077;-60
2022/05/18 01:09:09;;;;;;;16.38;12.27;;;15.70;99.90;;;;;;5041122;28;20049;-59
2022/05/18 01:11:39;;;;;;;18.23;13.00;;;15.70;99.90;;;;;;5033859;28;20509;-58
2022/05/18 01:14:13;;;;;;;19.73;12.40;;;15.70;99.90;;;;;;5031798;28;20403;-59
2022/05/18 01:16:38;;;;;;;16.88;12.38;;;15.70;99.90;;;;;;5032072;28;20034;-60
2022/05/18 01:19:10;;;;;;;19.38;12.68;;;15.70;99.90;;;;;;5032277;28;20037;-60
2022/05/18 01:21:44;;;;;;;16.23;11.98;;;15.70;99.90;;;;;;5027558;28;20744;-59
2022/05/18 01:24:21;;;;;;;15.20;12.30;;;15.90;99.90;;;;;;5033612;28;20033;-60
2022/05/18 01:26:48;;;;;;;16.77;13.25;;;15.80;99.90;;;;;;5037743;28;20037;-60
2022/05/18 01:29:18;;;;;;;17.10;13.15;;;15.70;99.90;;;;;;5036119;28;20124;-60
2022/05/18 01:31:56;;;;;;;18.25;12.68;;;15.60;99.90;;;;;;5036325;28;20037;-59
2022/05/18 01:34:25;;;;;;;18.08;12.52;;;15.60;99.90;;;;;;5036293;28;20037;-60
2022/05/18 01:36:51;;;;;;;20.45;14.45;;;15.60;99.90;;;;;;5033462;28;20029;-59
2022/05/18 01:39:34;;;;;;;20.70;14.45;;;15.60;99.90;;;;;;5031824;28;20073;-60
2022/05/18 01:42:07;;;;;;;16.88;12.90;;;15.60;99.90;;;;;;5045428;28;20035;-60
2022/05/18 01:44:39;;;;;;;15.02;12.55;;;15.50;99.90;;;;;;5036235;28;20405;-59
2022/05/18 01:47:05;;;;;;;16.50;12.77;;;15.40;99.90;;;;;;5068194;28;20059;-60
2022/05/18 01:49:33;;;;;;;15.93;12.15;;;15.40;99.90;;;;;;5037780;28;20037;-60
2022/05/18 01:51:59;;;;;;;14.75;12.55;;;15.30;99.90;;;;;;5037692;28;20043;-58
2022/05/18 01:54:24;;;;;;;17.70;12.88;;;15.20;99.90;;;;;;5033803;28;20029;-59
2022/05/18 01:56:50;;;;;;;18.45;14.70;;;15.20;99.90;;;;;;5039736;28;20025;-59
2022/05/18 01:59:17;;;;;;;17.13;13.25;;;15.40;99.90;;;;;;5037661;28;20034;-60
2022/05/18 02:01:44;;;;;;;21.25;14.35;;;15.20;99.90;;;;;;5035130;28;20036;-59
2022/05/18 02:04:10;;;;;;;18.25;12.70;;;15.30;99.90;;;;;;5037595;28;20033;-60
2022/05/18 02:06:36;;;;;;;18.67;13.55;;;15.20;99.90;;;;;;5034693;28;20021;-60
2022/05/18 02:09:04;;;;;;;15.90;12.40;;;15.20;99.90;;;;;;5037023;28;20045;-60
2022/05/18 02:11:32;;;;;;;16.85;14.80;;;15.10;99.90;;;;;;5038286;28;20041;-60
2022/05/18 02:13:58;;;;;;;23.95;16.15;;;15.20;99.90;;;;;;5037438;28;20022;-59
2022/05/18 02:16:24;;;;;;;18.58;14.55;;;15.30;99.90;;;;;;5036044;28;20033;-60
2022/05/18 02:18:50;;;;;;;19.63;15.75;;;15.20;99.90;;;;;;5036353;28;20028;-60
2022/05/18 02:21:16;;;;;;;17.90;13.20;;;15.20;99.90;;;;;;5033875;28;20128;-60
2022/05/18 02:23:42;;;;;;;17.63;13.40;;;15.20;99.90;;;;;;5038251;28;20022;-59
2022/05/18 02:26:08;;;;;;;19.75;13.80;;;15.40;99.90;;;;;;5036906;28;20386;-60
2022/05/18 02:28:34;;;;;;;15.68;12.45;;;15.20;99.90;;;;;;5037088;28;20025;-60
2022/05/18 02:31:00;;;;;;;17.02;12.52;;;15.10;99.90;;;;;;5037068;28;20032;-59
2022/05/18 02:33:26;;;;;;;20.20;14.20;;;15.00;99.90;;;;;;5032969;28;20118;-60
2022/05/18 02:35:51;;;;;;;23.33;14.95;;;14.90;99.90;;;;;;5038986;28;20109;-60
2022/05/18 02:38:17;;;;;;;19.90;15.32;;;15.00;99.90;;;;;;5037108;28;20115;-60
2022/05/18 02:40:43;;;;;;;17.38;14.38;;;14.90;99.90;;;;;;5035278;28;20044;-59
2022/05/18 02:43:09;;;;;;;17.88;14.35;;;14.90;99.90;;;;;;5037049;28;20025;-59
2022/05/18 02:45:36;;;;;;;17.33;14.25;;;14.80;99.90;;;;;;5034172;28;20548;-60
2022/05/18 02:48:03;;;;;;;16.85;13.38;;;14.90;99.90;;;;;;5036343;28;20026;-59
2022/05/18 02:50:28;;;;;;;15.73;14.10;;;14.90;99.90;;;;;;5038037;28;20029;-60
2022/05/18 02:52:54;;;;;;;16.65;13.40;;;14.80;99.90;;;;;;5036639;28;20040;-60
2022/05/18 02:58:06;;;;;;;14.15;12.35;;;14.70;99.90;;;;;;5036782;28;20029;-60
2022/05/18 03:00:32;;;;;;;18.05;13.75;;;14.70;99.90;;;;;;5033362;28;20434;-60
2022/05/18 03:02:57;;;;;;;16.40;13.13;;;14.80;99.90;;;;;;5037025;28;20105;-60
2022/05/18 03:05:23;;;;;;;14.90;12.48;;;14.90;99.90;;;;;;5037146;28;20029;-60
2022/05/18 03:07:49;;;;;;;13.38;11.68;;;14.90;99.90;;;;;;5036412;28;20035;-59
2022/05/18 03:10:15;;;;;;;15.85;13.82;;;14.90;99.90;;;;;;5035945;28;20033;-60
2022/05/18 03:12:43;;;;;;;17.90;13.45;;;14.80;99.90;;;;;;5034183;28;20497;-60
2022/05/18 03:15:11;;;;;;;17.60;13.65;;;14.60;99.90;;;;;;5034370;28;20018;-59
2022/05/18 03:17:37;;;;;;;15.70;11.93;;;14.50;99.90;;;;;;5036491;28;20452;-60
2022/05/18 03:20:04;;;;;;;15.45;13.43;;;14.40;99.90;;;;;;5034886;28;20430;-60
2022/05/18 03:25:13;;;;;;;;;;;14.40;99.90;;;;;;5036480;28;20056;-59
2022/05/18 03:27:43;;;;;;;20.58;13.93;;;14.40;99.90;;;;;;5034111;28;20393;-60
2022/05/18 03:30:11;;;;;;;19.30;15.77;;;14.60;99.90;;;;;;5033646;28;20442;-60
2022/05/18 03:32:37;;;;;;;28.98;16.42;;;14.70;99.90;;;;;;5035833;28;20475;-60
2022/05/18 03:35:03;;;;;;;23.35;17.65;;;14.70;99.90;;;;;;5034431;28;20018;-59
2022/05/18 03:37:29;;;;;;;22.80;16.02;;;14.60;99.90;;;;;;5035637;28;20045;-60
2022/05/18 03:39:55;;;;;;;20.95;15.65;;;14.60;99.90;;;;;;5035655;28;20117;-60
2022/05/18 03:42:21;;;;;;;20.27;14.80;;;14.60;99.90;;;;;;5031724;28;20030;-60
2022/05/18 03:44:47;;;;;;;59.00;20.92;;;14.80;99.90;;;;;;5037372;28;20445;-60
2022/05/18 03:47:13;;;;;;;24.33;18.80;;;14.60;99.90;;;;;;5035512;28;20021;-59
2022/05/18 03:49:39;;;;;;;34.92;21.45;;;14.50;99.90;;;;;;5035788;28;20037;-59
2022/05/18 03:52:05;;;;;;;35.20;20.85;;;14.40;99.90;;;;;;5035012;28;20029;-58
2022/05/18 03:54:31;;;;;;;34.00;20.88;;;14.30;99.90;;;;;;5032014;28;20029;-60
2022/05/18 03:56:57;;;;;;;45.80;24.40;;;14.30;99.90;;;;;;5036709;28;20382;-59
2022/05/18 03:59:22;;;;;;;23.23;18.60;;;14.30;99.90;;;;;;5034581;28;20025;-60
2022/05/18 04:01:48;;;;;;;28.27;20.83;;;14.20;99.90;;;;;;5034155;28;20033;-60
2022/05/18 04:04:14;;;;;;;40.88;24.30;;;14.20;99.90;;;;;;5035346;28;20032;-60
2022/05/18 04:06:40;;;;;;;42.88;26.77;;;14.10;99.90;;;;;;5033069;28;20036;-59
2022/05/18 04:09:05;;;;;;;26.13;20.58;;;14.20;99.90;;;;;;5033896;28;20474;-60
2022/05/18 04:11:31;;;;;;;28.50;20.98;;;14.20;99.90;;;;;;5036566;28;20056;-60
2022/05/18 04:13:57;;;;;;;25.40;19.33;;;14.10;99.90;;;;;;5033804;28;20057;-60
2022/05/18 04:16:22;;;;;;;21.40;17.48;;;14.10;99.90;;;;;;5035079;28;20038;-60
2022/05/18 04:18:48;;;;;;;20.75;18.55;;;14.10;99.90;;;;;;5032933;28;20035;-60
2022/05/18 04:21:14;;;;;;;19.67;17.00;;;14.00;99.90;;;;;;5031375;28;20045;-60
2022/05/18 04:23:41;;;;;;;20.25;17.48;;;13.90;99.90;;;;;;5037230;28;20065;-60
2022/05/18 04:26:08;;;;;;;23.33;18.10;;;13.90;99.90;;;;;;5034798;28;20037;-60
2022/05/18 04:28:35;;;;;;;20.17;17.65;;;13.80;99.90;;;;;;5035246;28;20025;-60
2022/05/18 04:31:02;;;;;;;19.13;16.52;;;13.80;99.90;;;;;;5033645;28;20123;-60
2022/05/18 04:33:27;;;;;;;23.98;18.48;;;13.80;99.90;;;;;;5031139;28;20029;-59
2022/05/18 04:35:54;;;;;;;22.65;17.70;;;13.80;99.90;;;;;;5035767;28;20512;-60
2022/05/18 04:38:21;;;;;;;19.20;16.88;;;13.80;99.90;;;;;;5017952;28;20041;-60
2022/05/18 04:40:48;;;;;;;23.27;18.35;;;13.80;99.90;;;;;;5034726;28;20053;-59
2022/05/18 04:43:17;;;;;;;24.13;18.88;;;13.70;99.90;;;;;;5034833;28;20028;-60
2022/05/18 04:45:45;;;;;;;18.98;16.67;;;13.70;99.90;;;;;;5032966;28;20417;-60
2022/05/18 04:48:13;;;;;;;20.25;17.90;;;13.70;99.90;;;;;;5031607;28;20489;-60
2022/05/18 04:50:39;;;;;;;18.85;16.60;;;13.80;99.90;;;;;;5035017;28;20036;-59
2022/05/18 04:53:05;;;;;;;20.27;18.10;;;13.80;99.90;;;;;;5033185;28;20033;-59
2022/05/18 04:55:31;;;;;;;18.17;16.27;;;13.70;99.90;;;;;;5034441;28;20108;-59
2022/05/18 04:58:01;;;;;;;17.77;16.02;;;13.80;99.90;;;;;;5034007;28;20124;-60
2022/05/18 05:00:27;;;;;;;16.60;15.05;;;13.90;99.90;;;;;;5030634;28;20391;-60
2022/05/18 05:02:57;;;;;;;16.95;15.20;;;13.90;99.90;;;;;;5035989;28;20127;-60
2022/05/18 05:05:24;;;;;;;15.55;14.05;;;13.90;99.90;;;;;;5033588;28;20121;-60
2022/05/18 05:07:50;;;;;;;16.02;14.57;;;14.00;99.90;;;;;;5034396;28;20035;-60
2022/05/18 05:10:17;;;;;;;15.18;13.75;;;14.10;99.90;;;;;;5034180;28;20107;-59
2022/05/18 05:12:45;;;;;;;15.45;13.85;;;14.10;99.90;;;;;;5032515;28;20075;-60
2022/05/18 05:15:11;;;;;;;14.13;12.82;;;14.20;99.90;;;;;;5032073;28;20034;-60
2022/05/18 05:17:38;;;;;;;13.90;12.10;;;14.20;99.90;;;;;;5033328;28;20770;-60
2022/05/18 05:20:04;;;;;;;12.77;11.57;;;14.50;99.90;;;;;;5034281;28;20445;-59
2022/05/18 05:22:30;;;;;;;12.43;11.43;;;14.70;99.90;;;;;;5034141;28;20520;-60
2022/05/18 05:24:56;;;;;;;11.88;10.75;;;14.90;99.90;;;;;;5034208;28;20048;-59
2022/05/18 05:27:22;;;;;;;9.85;8.88;;;15.10;99.90;;;;;;5014373;28;20064;-60
2022/05/18 05:29:48;;;;;;;9.82;7.60;;;15.60;99.90;;;;;;5036225;28;20400;-60
2022/05/18 05:32:13;;;;;;;9.10;7.72;;;17.00;99.90;;;;;;5031435;28;20045;-60
2022/05/18 05:34:39;;;;;;;9.13;8.23;;;17.30;99.90;;;;;;5033592;28;20053;-60
2022/05/18 05:37:05;;;;;;;10.77;9.23;;;17.80;99.90;;;;;;5033989;28;20052;-59
2022/05/18 05:39:31;;;;;;;12.32;8.48;;;18.60;99.90;;;;;;5029355;28;20037;-59
2022/05/18 05:41:56;;;;;;;9.15;8.20;;;19.30;99.90;;;;;;5034123;28;20033;-60
2022/05/18 05:44:22;;;;;;;9.07;8.27;;;18.50;99.90;;;;;;5033617;28;20033;-60
2022/05/18 05:46:48;;;;;;;10.02;8.48;;;18.60;99.90;;;;;;5017564;28;20063;-59
2022/05/18 05:49:14;;;;;;;9.73;7.90;;;18.40;99.90;;;;;;5033988;28;20029;-60
2022/05/18 05:51:39;;;;;;;8.65;7.68;;;18.60;99.90;;;;;;5031654;28;20044;-60
2022/05/18 05:54:07;;;;;;;9.27;8.10;;;19.80;99.90;;;;;;5032439;28;20048;-59
2022/05/18 05:56:33;;;;;;;8.10;7.30;;;19.30;99.90;;;;;;5029578;28;20033;-60
2022/05/18 05:58:58;;;;;;;8.27;7.53;;;18.90;99.90;;;;;;5028832;28;20033;-60
2022/05/18 06:01:24;;;;;;;10.60;7.60;;;19.10;99.90;;;;;;5028622;28;20049;-60
2022/05/18 06:03:50;;;;;;;8.35;6.53;;;19.50;99.90;;;;;;5028358;28;20025;-61
2022/05/18 06:06:19;;;;;;;8.88;6.60;;;20.50;99.90;;;;;;5038248;28;20072;-60
2022/05/18 06:08:45;;;;;;;7.55;6.55;;;20.50;99.90;;;;;;5042421;28;20524;-60
2022/05/18 06:11:11;;;;;;;10.25;7.53;;;20.60;99.90;;;;;;5040438;28;20493;-60
2022/05/18 06:13:38;;;;;;;7.85;6.50;;;21.30;99.90;;;;;;5041368;28;20377;-60
2022/05/18 06:16:05;;;;;;;6.75;6.15;;;22.30;99.90;;;;;;5041402;28;20036;-60
2022/05/18 06:18:31;;;;;;;7.18;6.10;;;22.80;99.90;;;;;;5041685;28;20394;-61
2022/05/18 06:20:58;;;;;;;7.65;6.40;;;22.50;99.90;;;;;;5044154;28;20021;-59
2022/05/18 06:23:24;;;;;;;8.15;6.28;;;22.90;99.90;;;;;;5042197;28;20394;-60
2022/05/18 06:25:50;;;;;;;8.95;5.45;;;22.90;99.90;;;;;;5042049;28;20025;-60
2022/05/18 06:28:16;;;;;;;7.05;5.90;;;23.00;99.90;;;;;;5041975;28;21091;-59
2022/05/18 06:30:42;;;;;;;6.85;5.60;;;23.60;99.90;;;;;;5040076;28;20065;-59
2022/05/18 06:33:07;;;;;;;6.05;5.30;;;23.50;99.90;;;;;;5043274;28;20053;-60
2022/05/18 06:35:33;;;;;;;6.07;5.45;;;24.90;99.90;;;;;;5042741;28;20499;-61
2022/05/18 06:37:59;;;;;;;7.47;5.50;;;25.40;99.90;;;;;;5039040;28;20520;-59
2022/05/18 06:41:21;;;;;;;6.32;5.00;;;25.80;99.90;;;;;;5020550;28;20033;-61
2022/05/18 06:43:11;;;;;;;6.65;5.10;;;24.90;99.90;;;;;;5036043;28;20039;-61
2022/05/18 06:45:37;;;;;;;5.60;4.55;;;25.60;99.90;;;;;;5033771;28;20022;-61
2022/05/18 06:48:04;;;;;;;4.97;4.47;;;26.40;99.90;;;;;;5035048;28;20053;-62
2022/05/18 06:50:30;;;;;;;6.93;4.60;;;26.10;99.90;;;;;;5036124;28;20053;-61
2022/05/18 06:52:55;;;;;;;4.07;3.67;;;25.60;99.90;;;;;;5036853;28;20081;-61
2022/05/18 06:55:21;;;;;;;7.72;4.20;;;25.00;99.90;;;;;;5036846;28;20056;-61
2022/05/18 06:57:47;;;;;;;4.88;3.67;;;25.60;99.90;;;;;;5035348;28;20025;-61
2022/05/18 07:00:14;;;;;;;5.18;3.83;;;25.40;99.90;;;;;;5033633;28;20486;-61
2022/05/18 07:02:40;;;;;;;6.80;3.50;;;24.50;99.90;;;;;;5038040;28;20025;-61
2022/05/18 07:05:06;;;;;;;6.18;3.30;;;24.70;99.90;;;;;;5036591;28;20048;-61
2022/05/18 07:07:32;;;;;;;4.95;3.22;;;24.80;99.90;;;;;;5036472;28;20029;-61
2022/05/18 07:09:58;;;;;;;5.10;3.20;;;24.50;99.90;;;;;;5036684;28;20036;-61
2022/05/18 07:12:23;;;;;;;5.80;2.90;;;24.20;99.90;;;;;;5031693;28;20068;-61
2022/05/18 07:14:49;;;;;;;6.03;2.90;;;23.60;99.90;;;;;;5038141;28;20026;-61
2022/05/18 07:17:15;;;;;;;4.60;2.67;;;23.30;99.90;;;;;;5035919;28;20053;-61
2022/05/18 07:19:40;;;;;;;4.13;2.83;;;24.20;99.90;;;;;;5035639;28;20040;-61
2022/05/18 07:22:06;;;;;;;6.50;3.28;;;25.00;99.90;;;;;;5035631;28;20039;-61
2022/05/18 07:24:32;;;;;;;6.43;2.90;;;25.50;99.90;;;;;;5033157;28;20025;-61
2022/05/18 07:26:58;;;;;;;5.20;3.00;;;25.90;99.90;;;;;;5036549;28;20025;-61
2022/05/18 07:29:24;;;;;;;5.22;2.78;;;26.90;99.90;;;;;;5033915;28;20367;-61
2022/05/18 07:32:08;;;;;;;3.05;2.63;;;26.50;99.90;;;;;;5032961;28;20049;-61
2022/05/18 07:34:37;;;;;;;4.35;2.60;;;26.90;99.90;;;;;;5036260;28;20064;-62
2022/05/18 07:37:03;;;;;;;5.88;2.65;;;26.40;99.90;;;;;;5035768;28;20052;-60
2022/05/18 07:39:30;;;;;;;3.70;2.75;;;25.80;99.90;;;;;;5032143;28;20072;-61
2022/05/18 07:41:57;;;;;;;3.97;2.47;;;25.50;99.90;;;;;;5036605;28;20450;-60
2022/05/18 07:44:23;;;;;;;4.10;2.45;;;26.50;99.90;;;;;;5033385;28;20029;-61
2022/05/18 07:46:49;;;;;;;3.85;2.17;;;27.10;99.90;;;;;;5035596;28;20130;-61
2022/05/18 07:49:15;;;;;;;4.75;2.60;;;26.70;99.90;;;;;;5035613;28;20020;-61
2022/05/18 07:51:40;;;;;;;2.95;2.15;;;26.70;99.90;;;;;;5033749;28;20034;-61
2022/05/18 07:54:06;;;;;;;4.65;2.60;;;28.20;99.90;;;;;;5033846;28;20095;-61
2022/05/18 07:56:34;;;;;;;3.55;2.20;;;29.30;99.90;;;;;;5037061;28;20113;-61
2022/05/18 07:59:01;;;;;;;8.52;2.38;;;28.30;99.90;;;;;;5035152;28;20037;-61
2022/05/18 08:01:26;;;;;;;3.42;2.25;;;27.80;99.90;;;;;;5035406;28;20034;-61
2022/05/18 08:03:52;;;;;;;3.90;2.33;;;27.60;99.90;;;;;;5034748;28;20021;-61
2022/05/18 08:06:18;;;;;;;3.25;2.28;;;27.70;99.90;;;;;;5031693;28;20413;-61
2022/05/18 08:08:44;;;;;;;3.78;2.47;;;29.30;99.90;;;;;;5036476;28;20381;-61
2022/05/18 08:16:40;;;;;;;3.88;2.38;;;28.20;99.90;;;;;;5035366;28;20068;-61
2022/05/18 08:19:10;;;;;;;5.65;2.33;;;28.70;99.50;;;;;;5035468;28;20067;-61
2022/05/18 08:21:37;;;;;;;2.78;2.17;;;28.40;99.50;;;;;;5032127;28;20513;-61
2022/05/18 08:24:05;;;;;;;4.15;2.45;;;28.30;99.30;;;;;;5033830;28;20029;-61
2022/05/18 08:26:31;;;;;;;4.82;2.42;;;28.40;99.60;;;;;;5035262;28;20029;-61
2022/05/18 08:28:58;;;;;;;6.18;2.22;;;27.90;99.30;;;;;;5034661;28;20033;-61
2022/05/18 08:31:24;;;;;;;4.28;2.30;;;28.80;98.40;;;;;;5033396;28;20033;-61
2022/05/18 08:33:50;;;;;;;3.63;2.35;;;28.70;98.40;;;;;;5033973;28;20025;-61
2022/05/18 08:36:18;;;;;;;4.25;2.30;;;28.80;98.50;;;;;;5031420;28;20117;-61
2022/05/18 08:38:44;;;;;;;5.05;2.30;;;29.50;97.90;;;;;;5036918;28;20053;-61
2022/05/18 08:41:24;;;;;;;4.43;2.42;;;29.90;97.10;;;;;;5034161;28;20413;-61
2022/05/18 08:43:53;;;;;;;3.97;2.38;;;29.20;97.80;;;;;;5034668;28;20557;-61
2022/05/18 08:46:28;;;;;;;6.40;2.45;;;29.00;98.40;;;;;;5033245;28;20033;-61
2022/05/18 08:49:03;;;;;;;5.55;2.42;;;29.90;97.20;;;;;;5034035;28;20023;-61
2022/05/18 08:51:35;;;;;;;5.78;2.42;;;29.60;97.10;;;;;;5015764;28;20037;-61
2022/05/18 08:54:44;;;;;;;3.58;2.38;;;29.40;97.30;;;;;;5034337;28;20022;-61
2022/05/18 08:57:19;;;;;;;5.13;2.60;;;29.70;96.90;;;;;;5046499;28;20413;-61
2022/05/18 08:59:47;;;;;;;5.80;2.80;;;31.00;95.80;;;;;;5036808;28;20013;-61
2022/05/18 09:02:18;;;;;;;3.58;2.40;;;31.30;95.40;;;;;;5034291;28;20516;-61
2022/05/18 09:05:01;;;;;;;4.18;2.33;;;30.80;95.90;;;;;;5034416;28;20022;-61
2022/05/18 09:07:34;;;;;;;3.30;2.30;;;30.70;95.70;;;;;;5034387;28;20029;-61
2022/05/18 09:10:12;;;;;;;3.28;2.20;;;30.10;95.50;;;;;;5034073;28;20021;-62
2022/05/18 09:12:40;;;;;;;6.15;2.35;;;31.80;95.40;;;;;;5031101;28;20041;-61
2022/05/18 09:15:09;;;;;;;2.90;2.17;;;32.60;94.90;;;;;;5032804;28;20048;-61
2022/05/18 09:18:01;;;;;;;3.72;2.40;;;30.80;94.70;;;;;;5034320;28;20025;-61
2022/05/18 09:20:46;;;;;;;4.82;2.70;;;31.10;94.70;;;;;;5035443;28;20576;-61
2022/05/18 09:23:20;;;;;;;4.18;2.35;;;30.80;95.00;;;;;;5034508;28;20112;-61
2022/05/18 09:26:05;;;;;;;4.68;2.40;;;30.90;94.90;;;;;;5032557;28;20095;-61
2022/05/18 09:28:53;;;;;;;7.57;2.38;;;29.80;96.20;;;;;;5033997;28;20029;-61
2022/05/18 09:31:51;;;;;;;4.45;2.40;;;30.20;95.20;;;;;;5034026;28;20184;-61
2022/05/18 09:34:29;;;;;;;3.65;2.13;;;30.00;95.80;;;;;;5034249;28;20025;-61
2022/05/18 09:37:10;;;;;;;7.15;2.30;;;30.00;95.30;;;;;;5033679;28;20064;-61
2022/05/18 09:39:42;;;;;;;3.60;2.30;;;30.10;95.60;;;;;;5017435;28;20040;-61
2022/05/18 09:42:16;;;;;;;4.95;2.35;;;30.40;94.60;;;;;;5031769;28;20556;-61
2022/05/18 09:45:12;;;;;;;5.25;2.47;;;31.10;94.60;;;;;;5036707;28;20432;-61
2022/05/18 09:47:56;;;;;;;3.80;2.20;;;30.10;94.10;;;;;;5038617;28;20053;-61
2022/05/18 09:50:23;;;;;;;5.85;2.30;;;29.00;95.00;;;;;;5038560;28;20029;-61
2022/05/18 09:52:50;;;;;;;7.82;2.40;;;29.70;95.20;;;;;;5037696;28;20099;-61
2022/05/18 09:55:20;;;;;;;4.28;2.25;;;30.00;95.20;;;;;;5037816;28;20021;-61
2022/05/18 09:58:26;;;;;;;5.07;2.53;;;30.40;95.40;;;;;;5036366;28;20033;-61
2022/05/18 10:07:27;;;;;;;3.80;2.08;;;30.50;94.10;;;;;;5024959;28;20038;-61
2022/05/18 10:09:49;;;;;;;3.63;2.03;;;30.00;94.20;;;;;;5019982;28;20477;-60
2022/05/18 10:12:30;;;;;;;4.93;2.30;;;30.80;93.80;;;;;;5034223;28;20053;-61
2022/05/18 10:15:03;;;;;;;2.80;1.90;;;30.90;93.40;;;;;;5047206;28;20037;-61
2022/05/18 10:17:44;;;;;;;3.95;1.95;;;30.40;93.00;;;;;;5038463;28;20040;-61
2022/05/18 10:20:28;;;;;;;4.72;2.10;;;30.80;92.80;;;;;;5037615;28;20055;-61
2022/05/18 10:22:54;;;;;;;;;;;30.20;93.60;;;;;;5037655;28;20075;-61
2022/05/18 10:25:34;;;;;;;4.07;2.10;;;30.50;92.30;;;;;;5037111;28;19905;-61
2022/05/18 10:28:16;;;;;;;3.50;2.13;;;30.70;93.20;;;;;;5037162;28;20033;-61
2022/05/18 10:31:03;;;;;;;3.72;2.20;;;29.90;93.30;;;;;;5034898;28;20075;-61
2022/05/18 10:33:38;;;;;;;3.65;2.03;;;30.00;92.40;;;;;;5017956;28;20450;-61
2022/05/18 10:36:07;;;;;;;4.43;2.10;;;30.10;92.20;;;;;;5036024;28;20032;-60
2022/05/18 10:38:35;;;;;;;4.38;2.38;;;30.20;92.80;;;;;;5038077;28;20124;-61
2022/05/18 10:41:03;;;;;;;3.33;1.90;;;30.00;93.10;;;;;;5036820;28;20489;-61
2022/05/18 10:43:45;;;;;;;4.57;2.00;;;30.50;93.30;;;;;;5035759;28;20521;-61
2022/05/18 10:46:32;;;;;;;5.07;1.98;;;31.00;92.00;;;;;;5036701;28;20021;-60
2022/05/18 10:49:02;;;;;;;3.40;1.80;;;30.80;91.10;;;;;;5036589;28;20041;-60
2022/05/18 10:51:39;;;;;;;3.65;2.10;;;30.70;90.20;;;;;;5032402;28;20045;-61
2022/05/18 10:54:16;;;;;;;3.47;1.90;;;31.00;91.20;;;;;;5035842;28;20033;-60
2022/05/18 10:56:43;;;;;;;2.95;1.67;;;30.80;90.00;;;;;;5036463;28;20025;-60
2022/05/18 10:59:09;;;;;;;3.47;1.90;;;30.00;88.00;;;;;;5036699;28;20038;-61
2022/05/18 11:01:41;;;;;;;3.03;1.70;;;30.40;91.10;;;;;;5036432;28;20022;-61
2022/05/18 11:04:20;;;;;;;3.00;1.80;;;30.90;87.70;;;;;;5036985;28;20029;-61
2022/05/18 11:06:46;;;;;;;2.80;1.70;;;31.10;88.10;;;;;;5034972;28;20029;-61
2022/05/18 11:09:12;;;;;;;2.15;1.70;;;31.40;86.80;;;;;;5033436;28;20033;-61
2022/05/18 11:11:57;;;;;;;4.30;1.80;;;31.50;88.30;;;;;;5038246;28;20037;-61
2022/05/18 11:14:33;;;;;;;2.53;1.63;;;31.30;85.80;;;;;;5036802;28;20041;-60
2022/05/18 11:17:14;;;;;;;3.60;1.90;;;31.70;86.10;;;;;;5036269;28;20025;-60
2022/05/18 11:19:57;;;;;;;3.70;1.67;;;31.50;88.40;;;;;;5036569;28;20110;-61
2022/05/18 11:22:28;;;;;;;;;;;30.80;87.80;;;;;;5035033;28;20025;-60
2022/05/18 11:25:09;;;;;;;3.65;2.03;;;31.40;88.70;;;;;;5035571;28;19934;-60
2022/05/18 11:27:43;;;;;;;2.28;1.60;;;30.90;87.70;;;;;;5018509;28;20036;-60
2022/05/18 11:30:34;;;;;;;3.30;1.70;;;31.20;89.10;;;;;;5034107;28;20032;-60
2022/05/18 11:33:15;;;;;;;3.08;2.05;;;31.50;86.80;;;;;;4988657;28;20034;-60
2022/05/18 11:35:53;;;;;;;2.53;1.90;;;32.10;88.80;;;;;;4992077;28;20080;-60
2022/05/18 11:38:42;;;;;;;3.65;1.80;;;31.10;87.40;;;;;;4990860;28;20046;-60
2022/05/18 11:41:33;;;;;;;3.95;2.20;;;31.10;88.20;;;;;;4991386;28;20117;-60
2022/05/18 11:44:32;;;;;;;2.80;2.00;;;31.50;87.40;;;;;;4991202;28;20042;-60
2022/05/18 11:47:40;;;;;;;5.63;2.08;;;31.30;86.90;;;;;;4948104;28;20479;-58
2022/05/18 11:50:23;;;;;;;3.92;1.92;;;31.00;87.20;;;;;;4947918;29;20043;-61
2022/05/18 11:52:49;;;;;;;4.13;2.10;;;31.20;87.20;;;;;;4947530;28;20511;-60
2022/05/18 11:55:37;;;;;;;3.42;1.83;;;31.10;88.80;;;;;;4948105;29;20031;-60
2022/05/18 11:58:44;;;;;;;4.90;2.05;;;31.20;86.40;;;;;;4947930;29;20536;-60
2022/05/18 12:01:34;;;;;;;2.72;1.88;;;31.50;87.60;;;;;;4948391;28;20036;-60
2022/05/18 12:04:14;;;;;;;6.55;1.90;;;31.50;88.60;;;;;;4948062;28;20135;-60
2022/05/18 12:07:07;;;;;;;4.10;2.20;;;31.40;86.50;;;;;;4949662;28;20023;-60
2022/05/18 12:09:58;;;;;;;4.25;1.75;;;31.30;85.00;;;;;;4948030;28;20105;-60
2022/05/18 12:12:53;;;;;;;3.80;2.03;;;31.70;86.00;;;;;;4972959;28;20041;-60
2022/05/18 12:15:27;;;;;;;2.78;1.83;;;31.90;85.60;;;;;;5003897;28;20174;-60
2022/05/18 12:18:07;;;;;;;5.28;1.90;;;32.00;85.30;;;;;;4995986;28;20119;-60
2022/05/18 12:20:55;;;;;;;2.85;1.70;;;32.30;84.70;;;;;;4995012;28;20088;-60
2022/05/18 12:23:29;;;;;;;5.25;1.80;;;32.30;84.10;;;;;;5009144;28;20529;-60
2022/05/18 12:25:55;;;;;;;;;;;32.10;82.90;;;;;;5035244;28;20022;-60
2022/05/18 12:28:22;;;;;;;3.38;1.92;;;32.10;84.20;;;;;;5034992;28;20368;-60
2022/05/18 12:30:48;;;;;;;3.70;1.90;;;31.90;84.10;;;;;;5033240;28;20515;-61
2022/05/18 12:33:14;;;;;;;3.50;1.80;;;32.00;81.50;;;;;;5032307;28;20116;-60
2022/05/18 12:36:02;;;;;;;5.10;1.83;;;32.10;81.70;;;;;;5036314;28;20037;-60
2022/05/18 12:38:51;;;;;;;3.35;1.85;;;32.40;83.60;;;;;;5034605;28;20521;-61
2022/05/18 12:41:17;;;;;;;5.03;1.90;;;32.10;81.20;;;;;;5033280;28;20080;-60
2022/05/18 12:43:50;;;;;;;3.53;1.77;;;32.30;81.60;;;;;;5034650;28;20112;-60
2022/05/18 12:46:16;;;;;;;2.97;2.05;;;32.30;82.20;;;;;;5034628;28;20020;-60
2022/05/18 12:48:47;;;;;;;3.17;1.60;;;32.30;82.60;;;;;;5031982;28;20414;-60
2022/05/18 12:51:28;;;;;;;3.25;1.80;;;32.60;82.70;;;;;;5032098;28;20037;-60
2022/05/18 12:54:12;;;;;;;2.72;1.67;;;32.60;79.80;;;;;;5043984;28;20106;-60
2022/05/18 12:56:38;;;;;;;4.85;1.60;;;32.50;80.70;;;;;;5034670;28;20045;-60
2022/05/18 12:59:18;;;;;;;4.22;1.70;;;32.50;79.40;;;;;;5034553;28;20025;-60
2022/05/18 13:01:50;;;;;;;5.35;1.63;;;32.50;78.40;;;;;;5034754;28;20040;-60
2022/05/18 13:04:16;;;;;;;3.92;2.17;;;32.60;76.90;;;;;;5033972;28;20039;-60
2022/05/18 13:07:09;;;;;;;2.67;1.90;;;32.40;78.80;;;;;;5032132;28;20025;-61
2022/05/18 13:09:39;;;;;;;3.20;1.67;;;32.40;79.30;;;;;;5012727;28;20065;-60
2022/05/18 13:12:23;;;;;;;2.65;1.50;;;32.70;79.90;;;;;;5033779;28;20379;-60
2022/05/18 13:15:03;;;;;;;4.85;2.17;;;32.50;77.30;;;;;;5035800;28;20034;-60
2022/05/18 13:17:47;;;;;;;4.47;1.90;;;32.40;77.60;;;;;;5034743;28;20029;-60